Skip Navigation Links Skip Navigation Links

Current Weather

La Guardia, New York

For information only: do not use for flight planning or navigation.
Latest weather
Observation time Thursday, November 14, 2019 7:51 PM EST
Local time Thursday, November 14, 2019 8:11 PM EST
Flight conditions Visual Meteorological Conditions
Winds
Wind direction Southwest (220°)
Wind speed 9 mph
Visibility 10 mi.
Sky condition
Ceiling 15,000 ft. broken clouds
Cloud layer broken clouds 15,000 ft.
Temperature 45°F
Dewpoint 24°F
Altimeter 30.30 in.Hg
Derived measurements
Relative humidity 43%
Wind chill 40°F
Density altitude -1278 ft.
Sea-level pressure 30.29 in.Hg
Remarks
System requires maintenance.
Automated weather observing station with precipitation discriminator.
METAR KLGA 150051Z 22008KT 10SM BKN150 07/M04 A3030 RMK AO2 SLP259 T00721044 $

Settings

Location code

InnerDrive.Weather 4.0.6770.0 Release CLR 4.0.30319.42000
Copyright ©2018 Inner Drive Technology. All rights reserved. Portions Copyright ©1986-2018 David Braverman.

Find weather

Site navigation


Skip Navigation Links

Place info

Page info

PayPal - The safer, easier way to pay online!

Return home.

Copyright ©2019 Inner Drive Technology. Purveyors of fine, hand-crafted computer software. Page printed 2019-11-15T01:11:52 UTC.